Time,TemperatureF,DewpointF,PressureIn,WindDirection,WindDirectionDegrees,WindSpeedMPH,WindSpeedGustMPH,Humidity,HourlyPrecipIn,Conditions,Clouds,dailyrainin,SoftwareType,DateUTC
2013-02-17 00:00:00,11.8,9.9,30.11,East,94,6.0,8.4,92,0.00,,OVC033,0.00,VWS V14.01,2013-02-17 06:00:00,
2013-02-17 00:10:00,12.1,10.2,30.11,ESE,105,8.0,10.5,92,0.00,,OVC033,0.00,VWS V14.01,2013-02-17 06:10:00,
2013-02-17 00:15:00,12.6,10.7,30.10,ESE,105,9.0,11.5,92,0.00,,OVC033,0.00,VWS V14.01,2013-02-17 06:15:00,
2013-02-17 00:20:00,12.8,10.9,30.10,ESE,112,10.0,12.6,92,0.00,,OVC033,0.00,VWS V14.01,2013-02-17 06:20:00,
2013-02-17 00:25:00,12.9,10.8,30.10,ESE,111,11.0,13.6,91,0.00,,OVC033,0.00,VWS V14.01,2013-02-17 06:25:00,
2013-02-17 00:30:00,13.2,11.3,30.10,ESE,117,10.0,13.6,92,0.00,,OVC033,0.00,VWS V14.01,2013-02-17 06:30:00,
2013-02-17 00:35:00,13.4,11.2,30.10,ESE,110,12.0,14.7,91,0.00,,OVC033,0.00,VWS V14.01,2013-02-17 06:35:00,
2013-02-17 00:40:00,13.4,11.2,30.10,ESE,115,10.0,13.6,91,0.00,,OVC033,0.00,VWS V14.01,2013-02-17 06:40:00,
2013-02-17 00:45:00,13.2,11.1,30.09,ESE,111,12.0,15.7,91,0.00,,OVC029,0.00,VWS V14.01,2013-02-17 06:45:00,
2013-02-17 00:50:00,13.0,10.9,30.08,ESE,115,12.0,14.7,91,0.00,,OVC029,0.00,VWS V14.01,2013-02-17 06:50:00,
2013-02-17 01:00:00,12.7,10.6,30.08,ESE,113,13.0,16.8,91,0.00,,OVC029,0.00,VWS V14.01,2013-02-17 07:00:00,
2013-02-17 01:05:00,12.6,10.4,30.08,ESE,117,11.0,15.7,91,0.00,,SCT027,0.00,VWS V14.01,2013-02-17 07:05:00,
2013-02-17 01:10:00,12.3,10.1,30.09,ESE,119,12.0,14.7,91,0.00,,SCT027,0.00,VWS V14.01,2013-02-17 07:10:00,
2013-02-17 01:15:00,11.9,9.5,30.09,ESE,119,12.0,13.6,90,0.00,,SCT027,0.00,VWS V14.01,2013-02-17 07:15:00,
2013-02-17 01:20:00,11.7,9.6,30.09,ESE,117,10.0,13.6,91,0.00,,SCT027,0.00,VWS V14.01,2013-02-17 07:20:00,
2013-02-17 01:25:00,11.6,9.5,30.08,ESE,115,11.0,13.6,91,0.00,,CLR,0.00,VWS V14.01,2013-02-17 07:25:00,
2013-02-17 01:30:00,11.4,9.3,30.08,ESE,119,10.0,13.6,91,0.00,,CLR,0.00,VWS V14.01,2013-02-17 07:30:00,
2013-02-17 01:35:00,11.1,9.0,30.08,SE,126,11.0,14.7,91,0.00,,CLR,0.00,VWS V14.01,2013-02-17 07:35:00,
2013-02-17 01:40:00,11.0,8.9,30.08,ESE,118,12.0,13.6,91,0.00,,CLR,0.00,VWS V14.01,2013-02-17 07:40:00,
2013-02-17 01:45:00,10.9,8.8,30.08,SE,125,12.0,14.7,91,0.00,,CLR,0.00,VWS V14.01,2013-02-17 07:45:00,
2013-02-17 01:50:00,10.8,8.7,30.07,ESE,121,11.0,14.7,91,0.00,,CLR,0.00,VWS V14.01,2013-02-17 07:50:00,
2013-02-17 01:55:00,10.7,8.6,30.07,ESE,119,12.0,13.6,91,0.00,,CLR,0.00,VWS V14.01,2013-02-17 07:55:00,
2013-02-17 02:00:00,10.6,8.5,30.07,ESE,119,11.0,13.6,91,0.00,,CLR,0.00,VWS V14.01,2013-02-17 08:00:00,
2013-02-17 02:10:00,11.0,9.1,30.07,ESE,119,12.0,13.6,92,0.00,,CLR,0.00,VWS V14.01,2013-02-17 08:10:00,
2013-02-17 02:15:00,11.1,9.2,30.07,SE,134,13.0,13.6,92,0.00,,CLR,0.00,VWS V14.01,2013-02-17 08:15:00,
2013-02-17 02:20:00,11.2,9.3,30.07,SE,126,8.0,16.8,92,0.00,,CLR,0.00,VWS V14.01,2013-02-17 08:20:00,
2013-02-17 02:25:00,11.0,9.1,30.07,SE,135,10.0,14.7,92,0.00,,CLR,0.00,VWS V14.01,2013-02-17 08:25:00,
2013-02-17 02:30:00,10.8,8.7,30.07,ESE,115,8.0,13.6,91,0.00,,CLR,0.00,VWS V14.01,2013-02-17 08:30:00,
2013-02-17 02:35:00,10.5,8.4,30.07,ESE,111,8.0,12.6,91,0.00,,CLR,0.00,VWS V14.01,2013-02-17 08:35:00,
2013-02-17 02:40:00,10.7,8.8,30.07,ESE,115,8.0,11.5,92,0.00,,CLR,0.00,VWS V14.01,2013-02-17 08:40:00,
2013-02-17 02:45:00,10.8,8.9,30.08,ESE,115,8.0,11.5,92,0.00,,CLR,0.00,VWS V14.01,2013-02-17 08:45:00,
2013-02-17 02:50:00,10.8,8.9,30.07,ESE,111,9.0,11.5,92,0.00,,CLR,0.00,VWS V14.01,2013-02-17 08:50:00,
2013-02-17 02:55:00,10.6,8.7,30.07,ESE,114,7.0,10.5,92,0.00,,CLR,0.00,VWS V14.01,2013-02-17 08:55:00,
2013-02-17 03:00:00,10.3,8.4,30.07,ESE,113,7.0,9.4,92,0.00,,CLR,0.00,VWS V14.01,2013-02-17 09:00:00,
2013-02-17 03:05:00,10.4,8.5,30.07,ESE,113,8.0,11.5,92,0.00,,SCT015,0.00,VWS V14.01,2013-02-17 09:05:00,
2013-02-17 03:10:00,10.5,8.6,30.07,ESE,117,8.0,10.5,92,0.00,,SCT015,0.00,VWS V14.01,2013-02-17 09:10:00,
2013-02-17 03:15:00,10.3,8.4,30.06,ESE,115,8.0,10.5,92,0.00,,SCT015,0.00,VWS V14.01,2013-02-17 09:15:00,
2013-02-17 03:20:00,10.0,8.1,30.06,SE,124,8.0,11.5,92,0.00,,SCT015,0.00,VWS V14.01,2013-02-17 09:20:00,
2013-02-17 03:25:00,9.3,7.4,30.06,ESE,117,9.0,10.5,92,0.00,,OVC015,0.00,VWS V14.01,2013-02-17 09:25:00,
2013-02-17 03:30:00,8.9,7.0,30.06,ESE,117,8.0,10.5,92,0.00,,OVC015,0.00,VWS V14.01,2013-02-17 09:30:00,
2013-02-17 03:35:00,9.0,7.1,30.06,ESE,121,9.0,10.5,92,0.00,,OVC015,0.00,VWS V14.01,2013-02-17 09:35:00,
2013-02-17 03:40:00,9.2,7.6,30.06,ESE,120,9.0,11.5,93,0.00,,OVC015,0.00,VWS V14.01,2013-02-17 09:40:00,
2013-02-17 03:45:00,9.4,7.8,30.05,ESE,119,9.0,11.5,93,0.00,,OVC015,0.00,VWS V14.01,2013-02-17 09:45:00,
2013-02-17 03:50:00,9.4,7.8,30.05,ESE,119,9.0,9.4,93,0.00,,OVC015,0.00,VWS V14.01,2013-02-17 09:50:00,
2013-02-17 03:55:00,9.4,7.8,30.05,ESE,119,9.0,9.4,93,0.00,,OVC015,0.00,VWS V14.01,2013-02-17 09:55:00,
2013-02-17 04:00:00,9.4,7.8,30.05,ESE,119,9.0,9.4,93,0.00,,OVC015,0.00,VWS V14.01,2013-02-17 10:00:00,
2013-02-17 04:05:00,9.4,7.8,30.05,ESE,119,9.0,9.4,93,0.00,,OVC017,0.00,VWS V14.01,2013-02-17 10:05:00,
2013-02-17 04:10:00,9.4,7.8,30.04,ESE,119,9.0,9.4,93,0.00,,OVC017,0.00,VWS V14.01,2013-02-17 10:10:00,
2013-02-17 04:15:00,12.2,10.6,30.04,SE,135,11.0,13.6,93,0.00,,OVC017,0.00,VWS V14.01,2013-02-17 10:15:00,
2013-02-17 04:20:00,12.2,10.6,30.04,ESE,117,14.0,14.7,93,0.00,,OVC017,0.00,VWS V14.01,2013-02-17 10:20:00,
2013-02-17 04:25:00,12.2,10.6,30.04,ESE,118,11.0,15.7,93,0.00,,OVC019,0.00,VWS V14.01,2013-02-17 10:25:00,
2013-02-17 04:30:00,12.2,10.6,30.03,ESE,118,13.0,13.6,93,0.00,,OVC019,0.00,VWS V14.01,2013-02-17 10:30:00,
2013-02-17 04:35:00,12.1,10.4,30.03,SE,127,11.0,15.7,93,0.00,,OVC019,0.00,VWS V14.01,2013-02-17 10:35:00,
2013-02-17 04:40:00,11.9,10.2,30.03,ESE,119,15.0,15.7,93,0.00,,OVC019,0.00,VWS V14.01,2013-02-17 10:40:00,
2013-02-17 04:45:00,11.7,10.1,30.03,SE,130,9.0,15.7,93,0.00,,OVC019,0.00,VWS V14.01,2013-02-17 10:45:00,
2013-02-17 04:50:00,11.7,10.1,30.03,ESE,117,11.0,13.6,93,0.00,,OVC019,0.00,VWS V14.01,2013-02-17 10:50:00,
2013-02-17 04:55:00,11.2,9.6,30.03,ESE,116,11.0,13.6,93,0.00,,OVC019,0.00,VWS V14.01,2013-02-17 10:55:00,
2013-02-17 05:00:00,11.0,9.4,30.03,ESE,109,10.0,12.6,93,0.00,,OVC019,0.00,VWS V14.01,2013-02-17 11:00:00,
2013-02-17 05:05:00,10.8,9.2,30.02,ESE,113,13.0,13.6,93,0.00,,OVC021,0.00,VWS V14.01,2013-02-17 11:05:00,
2013-02-17 05:10:00,10.7,9.1,30.02,ESE,119,11.0,13.6,93,0.00,,OVC021,0.00,VWS V14.01,2013-02-17 11:10:00,
2013-02-17 05:15:00,10.5,9.1,30.02,ESE,113,12.0,13.6,94,0.00,,OVC021,0.00,VWS V14.01,2013-02-17 11:15:00,
2013-02-17 05:20:00,10.4,9.0,30.01,ESE,117,11.0,13.6,94,0.00,,OVC021,0.00,VWS V14.01,2013-02-17 11:20:00,
2013-02-17 05:25:00,11.1,9.7,30.01,SE,125,13.0,14.7,94,0.00,,OVC019,0.00,VWS V14.01,2013-02-17 11:25:00,
2013-02-17 05:30:00,11.8,10.6,30.01,SE,127,13.0,16.8,95,0.00,,OVC019,0.00,VWS V14.01,2013-02-17 11:30:00,
2013-02-17 05:35:00,12.1,10.9,30.00,SE,124,14.0,16.8,95,0.00,,OVC019,0.00,VWS V14.01,2013-02-17 11:35:00,
2013-02-17 05:40:00,12.2,10.8,30.00,SE,124,14.0,18.9,94,0.00,,OVC019,0.00,VWS V14.01,2013-02-17 11:40:00,
2013-02-17 05:45:00,12.2,11.0,30.01,ESE,121,14.0,16.8,95,0.00,,BKN019,0.00,VWS V14.01,2013-02-17 11:45:00,
2013-02-17 05:50:00,12.2,10.8,30.00,ESE,123,14.0,16.8,94,0.00,,BKN019,0.00,VWS V14.01,2013-02-17 11:50:00,
2013-02-17 06:00:00,12.3,11.1,30.00,ESE,121,11.0,15.7,95,0.00,,BKN019,0.00,VWS V14.01,2013-02-17 12:00:00,
2013-02-17 06:05:00,12.7,11.5,30.00,ESE,123,14.0,15.7,95,0.00,,CLR,0.00,VWS V14.01,2013-02-17 12:05:00,
2013-02-17 06:10:00,12.8,11.6,29.99,SE,132,12.0,14.7,95,0.00,,CLR,0.00,VWS V14.01,2013-02-17 12:10:00,
2013-02-17 06:15:00,12.8,11.6,29.99,SE,132,12.0,12.6,95,0.00,,CLR,0.00,VWS V14.01,2013-02-17 12:15:00,
2013-02-17 06:20:00,12.8,11.6,29.98,SE,132,12.0,12.6,95,0.00,,CLR,0.00,VWS V14.01,2013-02-17 12:20:00,
2013-02-17 06:25:00,12.8,11.6,29.98,SE,132,12.0,12.6,95,0.00,,CLR,0.00,VWS V14.01,2013-02-17 12:25:00,
2013-02-17 06:30:00,12.8,11.6,29.98,SE,132,12.0,12.6,95,0.00,,CLR,0.00,VWS V14.01,2013-02-17 12:30:00,
2013-02-17 06:35:00,14.7,13.5,29.98,SE,128,10.0,12.6,95,0.00,,CLR,0.00,VWS V14.01,2013-02-17 12:35:00,
2013-02-17 06:40:00,14.9,13.7,29.98,SE,136,11.0,13.6,95,0.00,,CLR,0.00,VWS V14.01,2013-02-17 12:40:00,
2013-02-17 06:45:00,14.7,13.3,29.98,SSE,150,10.0,12.6,94,0.00,,CLR,0.00,VWS V14.01,2013-02-17 12:45:00,
2013-02-17 06:50:00,14.8,13.6,29.98,SE,145,10.0,13.6,95,0.00,,CLR,0.00,VWS V14.01,2013-02-17 12:50:00,
2013-02-17 06:55:00,14.6,13.2,29.97,SE,140,10.0,13.6,94,0.00,,CLR,0.00,VWS V14.01,2013-02-17 12:55:00,
2013-02-17 07:00:00,14.6,13.2,29.97,SE,140,12.0,14.7,94,0.00,,CLR,0.00,VWS V14.01,2013-02-17 13:00:00,
2013-02-17 07:05:00,14.6,13.2,29.97,SE,138,12.0,13.6,94,0.00,,CLR,0.00,VWS V14.01,2013-02-17 13:05:00,
2013-02-17 07:10:00,14.5,13.1,29.97,SE,131,12.0,13.6,94,0.00,,CLR,0.00,VWS V14.01,2013-02-17 13:10:00,
2013-02-17 07:15:00,14.6,13.4,29.97,SE,132,13.0,14.7,95,0.00,,CLR,0.00,VWS V14.01,2013-02-17 13:15:00,
2013-02-17 07:20:00,14.6,13.4,29.97,SE,140,10.0,13.6,95,0.00,,CLR,0.00,VWS V14.01,2013-02-17 13:20:00,
2013-02-17 07:25:00,14.7,13.5,29.97,SE,140,8.0,13.6,95,0.00,,CLR,0.00,VWS V14.01,2013-02-17 13:25:00,
2013-02-17 07:30:00,14.7,13.3,29.96,SE,140,11.0,12.6,94,0.00,,CLR,0.00,VWS V14.01,2013-02-17 13:30:00,
2013-02-17 07:35:00,14.7,13.3,29.96,SE,139,9.0,12.6,94,0.00,,CLR,0.00,VWS V14.01,2013-02-17 13:35:00,
2013-02-17 07:40:00,14.7,13.3,29.97,SE,146,7.0,11.5,94,0.00,,CLR,0.00,VWS V14.01,2013-02-17 13:40:00,
2013-02-17 07:45:00,14.6,13.2,29.96,SE,141,7.0,10.5,94,0.00,,CLR,0.00,VWS V14.01,2013-02-17 13:45:00,
2013-02-17 07:50:00,14.5,13.1,29.96,SE,136,10.0,11.5,94,0.00,,CLR,0.00,VWS V14.01,2013-02-17 13:50:00,
2013-02-17 07:55:00,15.4,14.2,29.96,SE,130,14.0,14.7,95,0.00,,CLR,0.00,VWS V14.01,2013-02-17 13:55:00,
2013-02-17 08:00:00,16.0,14.8,29.96,SE,133,14.0,15.7,95,0.00,,CLR,0.00,VWS V14.01,2013-02-17 14:00:00,
2013-02-17 08:05:00,16.1,14.9,29.96,SE,132,9.0,14.7,95,0.00,,CLR,0.00,VWS V14.01,2013-02-17 14:05:00,
2013-02-17 08:10:00,16.1,14.7,29.96,SE,138,12.0,13.6,94,0.00,,CLR,0.00,VWS V14.01,2013-02-17 14:10:00,
2013-02-17 08:15:00,16.2,14.8,29.96,SE,129,10.0,12.6,94,0.00,,CLR,0.00,VWS V14.01,2013-02-17 14:15:00,
2013-02-17 08:20:00,16.3,14.9,29.96,SE,136,12.0,14.7,94,0.00,,CLR,0.00,VWS V14.01,2013-02-17 14:20:00,
2013-02-17 08:25:00,16.3,14.9,29.96,SE,136,12.0,12.6,94,0.00,,CLR,0.00,VWS V14.01,2013-02-17 14:25:00,
2013-02-17 08:30:00,16.3,14.9,29.96,SE,136,12.0,12.6,94,0.00,,CLR,0.00,VWS V14.01,2013-02-17 14:30:00,
2013-02-17 08:35:00,16.3,14.9,29.95,SE,136,12.0,12.6,94,0.00,,CLR,0.00,VWS V14.01,2013-02-17 14:35:00,
2013-02-17 08:40:00,16.3,14.9,29.95,SE,136,12.0,12.6,94,0.00,,CLR,0.00,VWS V14.01,2013-02-17 14:40:00,
2013-02-17 08:45:00,16.3,14.9,29.95,SE,136,12.0,12.6,94,0.00,,CLR,0.00,VWS V14.01,2013-02-17 14:45:00,
2013-02-17 08:50:00,16.3,14.9,29.94,SE,136,12.0,12.6,94,0.00,,CLR,0.00,VWS V14.01,2013-02-17 14:50:00,
2013-02-17 08:55:00,16.3,14.9,29.94,SE,136,12.0,12.6,94,0.00,,CLR,0.00,VWS V14.01,2013-02-17 14:55:00,
2013-02-17 09:00:00,16.3,14.9,29.93,SE,136,12.0,12.6,94,0.00,,CLR,0.00,VWS V14.01,2013-02-17 15:00:00,
2013-02-17 09:10:00,16.3,14.9,29.92,SE,136,12.0,12.6,94,0.00,,CLR,0.00,VWS V14.01,2013-02-17 15:10:00,
2013-02-17 09:15:00,16.3,14.9,29.92,SE,136,12.0,12.6,94,0.00,,CLR,0.00,VWS V14.01,2013-02-17 15:15:00,
2013-02-17 09:25:00,16.3,14.9,29.91,SE,136,12.0,12.6,94,0.00,,CLR,0.00,VWS V14.01,2013-02-17 15:25:00,
2013-02-17 09:30:00,16.3,14.9,29.91,SE,136,12.0,12.6,94,0.00,,CLR,0.00,VWS V14.01,2013-02-17 15:30:00,
2013-02-17 09:35:00,16.3,14.9,29.91,SE,136,12.0,12.6,94,0.00,,CLR,0.00,VWS V14.01,2013-02-17 15:35:00,
2013-02-17 09:45:00,20.1,18.4,29.91,SE,134,12.0,21.0,93,0.00,,CLR,0.00,VWS V14.01,2013-02-17 15:45:00,
2013-02-17 09:50:00,20.3,18.6,29.91,SE,141,14.0,18.9,93,0.00,,CLR,0.00,VWS V14.01,2013-02-17 15:50:00,
2013-02-17 09:55:00,20.6,18.9,29.91,SE,132,12.0,17.8,93,0.00,,CLR,0.00,VWS V14.01,2013-02-17 15:55:00,
2013-02-17 10:05:00,21.2,19.2,29.91,SSE,150,17.0,21.0,92,0.00,,CLR,0.00,VWS V14.01,2013-02-17 16:05:00,
2013-02-17 10:10:00,21.4,19.4,29.91,SE,141,16.0,19.9,92,0.00,,CLR,0.00,VWS V14.01,2013-02-17 16:10:00,
2013-02-17 10:20:00,21.8,19.8,29.90,SE,134,18.0,22.0,92,0.00,,CLR,0.00,VWS V14.01,2013-02-17 16:20:00,
2013-02-17 10:25:00,22.0,19.8,29.90,SE,134,18.0,21.0,91,0.00,,CLR,0.00,VWS V14.01,2013-02-17 16:25:00,
2013-02-17 10:30:00,22.0,19.8,29.90,SE,134,18.0,18.9,91,0.00,,CLR,0.00,VWS V14.01,2013-02-17 16:30:00,
2013-02-17 10:35:00,22.3,20.0,29.90,SE,144,20.0,23.1,91,0.00,,CLR,0.00,VWS V14.01,2013-02-17 16:35:00,
2013-02-17 10:45:00,22.9,20.6,29.89,SE,134,15.0,23.1,91,0.00,,CLR,0.00,VWS V14.01,2013-02-17 16:45:00,
2013-02-17 10:50:00,23.1,20.8,29.89,SE,135,18.0,24.1,91,0.00,,CLR,0.00,VWS V14.01,2013-02-17 16:50:00,
2013-02-17 11:00:00,23.4,21.1,29.89,SE,144,16.0,19.9,91,0.00,,CLR,0.00,VWS V14.01,2013-02-17 17:00:00,
2013-02-17 11:05:00,23.6,21.3,29.89,SE,146,14.0,19.9,91,0.00,,CLR,0.00,VWS V14.01,2013-02-17 17:05:00,
2013-02-17 11:15:00,23.9,21.4,29.88,SE,142,15.0,19.9,90,0.00,,CLR,0.00,VWS V14.01,2013-02-17 17:15:00,
2013-02-17 11:20:00,24.0,21.7,29.88,SE,144,16.0,21.0,91,0.00,,CLR,0.00,VWS V14.01,2013-02-17 17:20:00,
2013-02-17 11:25:00,24.2,21.9,29.88,SE,132,16.0,19.9,91,0.00,,CLR,0.00,VWS V14.01,2013-02-17 17:25:00,
2013-02-17 11:30:00,24.3,22.0,29.87,SE,141,17.0,22.0,91,0.00,,CLR,0.00,VWS V14.01,2013-02-17 17:30:00,
2013-02-17 11:40:00,24.7,22.4,29.87,SE,138,17.0,22.0,91,0.00,,CLR,0.00,VWS V14.01,2013-02-17 17:40:00,
2013-02-17 11:45:00,24.8,22.5,29.86,SE,134,17.0,22.0,91,0.00,,CLR,0.00,VWS V14.01,2013-02-17 17:45:00,
2013-02-17 11:50:00,25.1,22.6,29.86,SE,146,20.0,24.1,90,0.00,,CLR,0.00,VWS V14.01,2013-02-17 17:50:00,
2013-02-17 11:55:00,25.3,23.0,29.86,SSE,150,18.0,21.0,91,0.00,,CLR,0.00,VWS V14.01,2013-02-17 17:55:00,
2013-02-17 12:00:00,25.4,23.1,29.85,SSE,153,19.0,19.9,91,0.00,,CLR,0.00,VWS V14.01,2013-02-17 18:00:00,
2013-02-17 12:10:00,25.9,23.6,29.85,SSE,156,14.0,22.0,91,0.00,,CLR,0.00,VWS V14.01,2013-02-17 18:10:00,
2013-02-17 12:15:00,26.2,23.6,29.84,SE,140,20.0,24.1,90,0.00,,CLR,0.00,VWS V14.01,2013-02-17 18:15:00,
2013-02-17 12:25:00,26.8,24.5,29.83,SE,133,19.0,22.0,91,0.00,,CLR,0.00,VWS V14.01,2013-02-17 18:25:00,
2013-02-17 12:30:00,27.0,24.7,29.82,SE,136,17.0,23.1,91,0.00,,CLR,0.00,VWS V14.01,2013-02-17 18:30:00,
2013-02-17 12:35:00,27.1,24.5,29.82,SE,146,22.0,25.2,90,0.00,,CLR,0.00,VWS V14.01,2013-02-17 18:35:00,
2013-02-17 12:40:00,27.3,24.7,29.81,SE,138,15.0,27.3,90,0.00,,CLR,0.00,VWS V14.01,2013-02-17 18:40:00,
2013-02-17 12:45:00,27.5,24.9,29.81,SE,136,17.0,25.2,90,0.00,,CLR,0.00,VWS V14.01,2013-02-17 18:45:00,
2013-02-17 12:55:00,27.8,25.2,29.81,SE,133,20.0,23.1,90,0.00,,CLR,0.00,VWS V14.01,2013-02-17 18:55:00,
2013-02-17 13:05:00,28.0,25.4,29.79,SE,133,19.0,25.2,90,0.00,,CLR,0.00,VWS V14.01,2013-02-17 19:05:00,
2013-02-17 13:10:00,28.2,25.9,29.79,SE,140,20.0,24.1,91,0.00,,CLR,0.00,VWS V14.01,2013-02-17 19:10:00,
2013-02-17 13:15:00,28.4,25.8,29.80,SE,142,18.0,26.2,90,0.00,,CLR,0.00,VWS V14.01,2013-02-17 19:15:00,
2013-02-17 13:20:00,28.5,26.2,29.79,SE,142,16.0,24.1,91,0.00,,CLR,0.00,VWS V14.01,2013-02-17 19:20:00,
2013-02-17 13:30:00,28.7,26.4,29.78,SE,130,17.0,23.1,91,0.00,,CLR,0.00,VWS V14.01,2013-02-17 19:30:00,
2013-02-17 13:35:00,29.0,26.7,29.78,SE,129,20.0,22.0,91,0.00,,CLR,0.00,VWS V14.01,2013-02-17 19:35:00,
2013-02-17 13:45:00,29.3,27.0,29.78,SE,134,13.0,19.9,91,0.00,,CLR,0.00,VWS V14.01,2013-02-17 19:45:00,
2013-02-17 13:50:00,29.5,27.2,29.77,SE,128,12.0,19.9,91,0.00,,CLR,0.00,VWS V14.01,2013-02-17 19:50:00,
2013-02-17 14:00:00,30.0,27.7,29.76,SE,142,19.0,23.1,91,0.00,,CLR,0.00,VWS V14.01,2013-02-17 20:00:00,
2013-02-17 14:10:00,30.5,27.9,29.76,SE,136,17.0,23.1,90,0.00,,CLR,0.00,VWS V14.01,2013-02-17 20:10:00,
2013-02-17 14:15:00,30.6,28.0,29.76,SE,136,16.0,23.1,90,0.00,,CLR,0.00,VWS V14.01,2013-02-17 20:15:00,
2013-02-17 14:20:00,30.7,28.4,29.75,SE,130,16.0,22.0,91,0.00,,CLR,0.00,VWS V14.01,2013-02-17 20:20:00,
2013-02-17 14:25:00,30.9,28.3,29.75,SE,138,22.0,24.1,90,0.00,,CLR,0.00,VWS V14.01,2013-02-17 20:25:00,
2013-02-17 14:35:00,31.2,28.6,29.74,SSE,159,17.0,24.1,90,0.00,,CLR,0.00,VWS V14.01,2013-02-17 20:35:00,
2013-02-17 14:40:00,31.4,28.8,29.73,SE,138,19.0,25.2,90,0.00,,CLR,0.00,VWS V14.01,2013-02-17 20:40:00,
2013-02-17 14:50:00,31.6,29.0,29.73,SE,136,16.0,23.1,90,0.00,,CLR,0.00,VWS V14.01,2013-02-17 20:50:00,
2013-02-17 14:55:00,31.7,29.1,29.72,SE,134,18.0,23.1,90,0.00,,CLR,0.00,VWS V14.01,2013-02-17 20:55:00,
2013-02-17 15:00:00,31.8,29.2,29.72,SE,128,15.0,25.2,90,0.00,,CLR,0.00,VWS V14.01,2013-02-17 21:00:00,
2013-02-17 15:05:00,31.9,29.5,29.71,SE,132,18.0,21.0,91,0.00,,CLR,0.00,VWS V14.01,2013-02-17 21:05:00,
2013-02-17 15:10:00,32.1,29.5,29.71,SE,140,20.0,27.3,90,0.00,,CLR,0.00,VWS V14.01,2013-02-17 21:10:00,
2013-02-17 15:15:00,32.1,29.5,29.70,SE,136,24.0,26.2,90,0.00,,CLR,0.00,VWS V14.01,2013-02-17 21:15:00,
2013-02-17 15:20:00,32.2,29.6,29.70,SE,133,20.0,25.2,90,0.00,,CLR,0.00,VWS V14.01,2013-02-17 21:20:00,
2013-02-17 15:25:00,32.1,29.8,29.70,SE,131,16.0,26.2,91,0.00,,CLR,0.00,VWS V14.01,2013-02-17 21:25:00,
2013-02-17 15:30:00,32.1,29.8,29.70,SE,139,18.0,23.1,91,0.00,,CLR,0.00,VWS V14.01,2013-02-17 21:30:00,
2013-02-17 15:40:00,32.1,29.8,29.69,SE,130,19.0,25.2,91,0.00,,CLR,0.00,VWS V14.01,2013-02-17 21:40:00,
2013-02-17 15:45:00,32.3,30.0,29.69,SE,133,18.0,24.1,91,0.00,,CLR,0.00,VWS V14.01,2013-02-17 21:45:00,
2013-02-17 15:55:00,32.5,29.9,29.68,SE,131,17.0,24.1,90,0.00,,CLR,0.00,VWS V14.01,2013-02-17 21:55:00,
2013-02-17 16:00:00,32.6,30.0,29.68,SE,133,17.0,23.1,90,0.00,,CLR,0.00,VWS V14.01,2013-02-17 22:00:00,
2013-02-17 16:10:00,32.6,30.0,29.68,SE,130,17.0,24.1,90,0.00,,CLR,0.00,VWS V14.01,2013-02-17 22:10:00,
2013-02-17 16:15:00,32.7,30.1,29.68,SE,133,19.0,25.2,90,0.00,,CLR,0.00,VWS V14.01,2013-02-17 22:15:00,
2013-02-17 16:20:00,32.7,30.3,29.67,SE,128,17.0,25.2,91,0.00,,CLR,0.00,VWS V14.01,2013-02-17 22:20:00,
2013-02-17 16:25:00,32.7,30.3,29.67,SE,132,23.0,24.1,91,0.00,,CLR,0.00,VWS V14.01,2013-02-17 22:25:00,
2013-02-17 16:30:00,32.5,30.1,29.66,ESE,123,20.0,25.2,91,0.00,,CLR,0.00,VWS V14.01,2013-02-17 22:30:00,
2013-02-17 16:40:00,32.5,30.4,29.66,SE,135,20.0,25.2,92,0.00,,CLR,0.00,VWS V14.01,2013-02-17 22:40:00,
2013-02-17 16:45:00,32.5,30.4,29.66,SE,136,17.0,24.1,92,0.00,,CLR,0.00,VWS V14.01,2013-02-17 22:45:00,
2013-02-17 16:50:00,32.5,30.4,29.66,SE,140,18.0,27.3,92,0.00,,CLR,0.00,VWS V14.01,2013-02-17 22:50:00,
2013-02-17 16:55:00,32.6,30.5,29.66,SE,138,27.0,28.3,92,0.00,,CLR,0.00,VWS V14.01,2013-02-17 22:55:00,
2013-02-17 17:00:00,32.7,30.6,29.65,SE,134,17.0,28.3,92,0.00,,CLR,0.00,VWS V14.01,2013-02-17 23:00:00,
2013-02-17 17:05:00,32.7,30.6,29.65,SE,136,19.0,26.2,92,0.00,,CLR,0.00,VWS V14.01,2013-02-17 23:05:00,
2013-02-17 17:15:00,32.7,30.6,29.64,SE,135,19.0,23.1,92,0.00,,CLR,0.00,VWS V14.01,2013-02-17 23:15:00,
2013-02-17 17:25:00,32.8,30.4,29.64,SE,136,22.0,26.2,91,0.00,,CLR,0.00,VWS V14.01,2013-02-17 23:25:00,
2013-02-17 17:30:00,33.0,30.9,29.65,SE,136,19.0,26.2,92,0.00,,CLR,0.00,VWS V14.01,2013-02-17 23:30:00,
2013-02-17 17:40:00,33.0,30.9,29.65,SE,132,19.0,25.2,92,0.00,,CLR,0.00,VWS V14.01,2013-02-17 23:40:00,
2013-02-17 17:45:00,33.1,30.7,29.65,SE,140,20.0,25.2,91,0.00,,CLR,0.00,VWS V14.01,2013-02-17 23:45:00,
2013-02-17 17:50:00,33.2,31.1,29.65,SE,141,18.0,23.1,92,0.00,,CLR,0.00,VWS V14.01,2013-02-17 23:50:00,
2013-02-17 17:55:00,33.4,31.0,29.65,SE,140,16.0,24.1,91,0.00,,CLR,0.00,VWS V14.01,2013-02-17 23:55:00,
2013-02-17 18:00:00,33.5,31.1,29.65,SE,140,18.0,26.2,91,0.00,,CLR,0.00,VWS V14.01,2013-02-18 00:00:00,
2013-02-17 18:10:00,33.5,31.1,29.65,SE,136,19.0,24.1,91,0.00,,CLR,0.00,VWS V14.01,2013-02-18 00:10:00,
2013-02-17 18:15:00,33.5,31.1,29.65,SE,142,17.0,25.2,91,0.00,,CLR,0.00,VWS V14.01,2013-02-18 00:15:00,
2013-02-17 18:20:00,33.4,31.0,29.65,SE,141,18.0,25.2,91,0.00,,CLR,0.00,VWS V14.01,2013-02-18 00:20:00,
2013-02-17 18:25:00,33.5,31.1,29.65,SE,135,19.0,25.2,91,0.00,,CLR,0.00,VWS V14.01,2013-02-18 00:25:00,
2013-02-17 18:30:00,33.5,31.1,29.65,SE,133,20.0,23.1,91,0.00,,CLR,0.00,VWS V14.01,2013-02-18 00:30:00,
2013-02-17 18:40:00,33.4,31.0,29.64,SE,129,16.0,24.1,91,0.00,,CLR,0.00,VWS V14.01,2013-02-18 00:40:00,
2013-02-17 18:45:00,33.3,30.9,29.64,SE,124,18.0,23.1,91,0.00,,CLR,0.00,VWS V14.01,2013-02-18 00:45:00,
2013-02-17 18:50:00,33.3,30.9,29.64,SE,125,18.0,24.1,91,0.00,,CLR,0.00,VWS V14.01,2013-02-18 00:50:00,
2013-02-17 18:55:00,33.1,31.0,29.64,SE,132,21.0,22.0,92,0.00,,CLR,0.00,VWS V14.01,2013-02-18 00:55:00,
2013-02-17 19:00:00,33.0,30.9,29.64,SE,134,21.0,24.1,92,0.00,,CLR,0.00,VWS V14.01,2013-02-18 01:00:00,
2013-02-17 19:05:00,32.9,30.8,29.63,North,360,22.0,25.2,92,0.00,,CLR,0.00,VWS V14.01,2013-02-18 01:05:00,
2013-02-17 19:10:00,32.8,30.7,29.63,SE,140,20.0,23.1,92,0.00,,CLR,0.00,VWS V14.01,2013-02-18 01:10:00,
2013-02-17 19:15:00,32.8,30.7,29.63,SE,132,21.0,25.2,92,0.00,,CLR,0.00,VWS V14.01,2013-02-18 01:15:00,
2013-02-17 19:20:00,32.8,30.7,29.63,SE,133,18.0,27.3,92,0.00,,CLR,0.00,VWS V14.01,2013-02-18 01:20:00,
2013-02-17 19:25:00,32.9,30.8,29.63,SE,137,20.0,25.2,92,0.00,,CLR,0.00,VWS V14.01,2013-02-18 01:25:00,
2013-02-17 19:30:00,32.9,30.8,29.62,SE,127,17.0,25.2,92,0.00,,CLR,0.00,VWS V14.01,2013-02-18 01:30:00,
2013-02-17 19:35:00,32.9,30.5,29.63,SE,140,21.0,25.2,91,0.00,,CLR,0.00,VWS V14.01,2013-02-18 01:35:00,
2013-02-17 19:40:00,32.8,30.4,29.62,SE,135,19.0,24.1,91,0.00,,CLR,0.00,VWS V14.01,2013-02-18 01:40:00,
2013-02-17 19:45:00,32.8,30.4,29.62,SE,138,19.0,25.2,91,0.00,,CLR,0.00,VWS V14.01,2013-02-18 01:45:00,
2013-02-17 19:50:00,32.6,30.2,29.62,SE,140,15.0,23.1,91,0.00,,CLR,0.00,VWS V14.01,2013-02-18 01:50:00,
2013-02-17 19:55:00,32.7,30.3,29.62,SE,132,17.0,24.1,91,0.00,,CLR,0.00,VWS V14.01,2013-02-18 01:55:00,
2013-02-17 20:00:00,32.6,30.2,29.62,SE,126,16.0,23.1,91,0.00,,CLR,0.00,VWS V14.01,2013-02-18 02:00:00,
2013-02-17 20:10:00,32.4,30.0,29.61,SE,132,17.0,22.0,91,0.00,,CLR,0.00,VWS V14.01,2013-02-18 02:10:00,
2013-02-17 20:15:00,32.5,30.1,29.61,SE,134,19.0,24.1,91,0.00,,CLR,0.00,VWS V14.01,2013-02-18 02:15:00,
2013-02-17 20:20:00,32.5,30.1,29.61,SE,130,18.0,22.0,91,0.00,,CLR,0.00,VWS V14.01,2013-02-18 02:20:00,
2013-02-17 20:25:00,32.6,30.2,29.61,SE,128,16.0,23.1,91,0.00,,CLR,0.00,VWS V14.01,2013-02-18 02:25:00,
2013-02-17 20:30:00,32.6,30.2,29.61,ESE,122,16.0,22.0,91,0.00,,CLR,0.00,VWS V14.01,2013-02-18 02:30:00,
2013-02-17 20:35:00,32.6,30.2,29.61,SE,131,19.0,24.1,91,0.00,,CLR,0.00,VWS V14.01,2013-02-18 02:35:00,
2013-02-17 20:40:00,32.7,30.3,29.61,SE,130,18.0,24.1,91,0.00,,CLR,0.00,VWS V14.01,2013-02-18 02:40:00,
2013-02-17 20:45:00,32.7,30.3,29.61,SE,132,15.0,21.0,91,0.00,,CLR,0.00,VWS V14.01,2013-02-18 02:45:00,
2013-02-17 20:50:00,32.7,30.3,29.61,SE,127,21.0,22.0,91,0.00,,CLR,0.00,VWS V14.01,2013-02-18 02:50:00,
2013-02-17 20:55:00,32.9,30.3,29.61,SE,129,15.0,22.0,90,0.00,,CLR,0.00,VWS V14.01,2013-02-18 02:55:00,
2013-02-17 21:00:00,33.0,30.4,29.61,SE,134,16.0,21.0,90,0.00,,CLR,0.00,VWS V14.01,2013-02-18 03:00:00,
2013-02-17 21:05:00,32.8,30.2,29.61,SE,136,15.0,18.9,90,0.00,,CLR,0.00,VWS V14.01,2013-02-18 03:05:00,
2013-02-17 21:10:00,32.7,30.1,29.61,SE,133,16.0,17.8,90,0.00,,CLR,0.00,VWS V14.01,2013-02-18 03:10:00,
2013-02-17 21:15:00,32.6,30.0,29.60,SE,135,13.0,17.8,90,0.00,,CLR,0.00,VWS V14.01,2013-02-18 03:15:00,
2013-02-17 21:20:00,32.5,29.9,29.60,SE,132,15.0,18.9,90,0.00,,CLR,0.00,VWS V14.01,2013-02-18 03:20:00,
2013-02-17 21:25:00,32.7,30.1,29.60,SE,124,13.0,18.9,90,0.00,,CLR,0.00,VWS V14.01,2013-02-18 03:25:00,
2013-02-17 21:30:00,33.4,30.5,29.60,SE,129,9.0,28.3,89,0.00,,CLR,0.00,VWS V14.01,2013-02-18 03:30:00,
2013-02-17 21:35:00,33.5,30.3,29.60,SE,137,22.0,23.1,88,0.00,,CLR,0.00,VWS V14.01,2013-02-18 03:35:00,
2013-02-17 21:40:00,33.3,30.1,29.59,ESE,122,13.0,24.1,88,0.00,,CLR,0.00,VWS V14.01,2013-02-18 03:40:00,
2013-02-17 21:45:00,33.1,29.9,29.59,SE,132,13.0,19.9,88,0.00,,CLR,0.00,VWS V14.01,2013-02-18 03:45:00,
2013-02-17 21:50:00,32.8,29.9,29.60,ESE,123,12.0,17.8,89,0.00,,CLR,0.00,VWS V14.01,2013-02-18 03:50:00,
2013-02-17 21:55:00,32.6,29.4,29.59,SE,131,11.0,15.7,88,0.00,,CLR,0.00,VWS V14.01,2013-02-18 03:55:00,
2013-02-17 22:00:00,32.4,29.5,29.59,SE,138,13.0,15.7,89,0.00,,CLR,0.00,VWS V14.01,2013-02-18 04:00:00,
2013-02-17 22:10:00,31.5,28.6,29.59,SE,130,11.0,14.7,89,0.00,,CLR,0.00,VWS V14.01,2013-02-18 04:10:00,
2013-02-17 22:15:00,31.3,28.7,29.58,SE,138,9.0,12.6,90,0.00,,CLR,0.00,VWS V14.01,2013-02-18 04:15:00,
2013-02-17 22:20:00,31.2,28.6,29.58,SE,132,12.0,13.6,90,0.00,,CLR,0.00,VWS V14.01,2013-02-18 04:20:00,
2013-02-17 22:25:00,31.4,28.8,29.58,SE,141,13.0,14.7,90,0.00,,CLR,0.00,VWS V14.01,2013-02-18 04:25:00,
2013-02-17 22:30:00,31.6,29.0,29.58,SE,136,12.0,14.7,90,0.00,,CLR,0.00,VWS V14.01,2013-02-18 04:30:00,
2013-02-17 22:35:00,31.6,29.0,29.57,SE,127,12.0,14.7,90,0.00,,CLR,0.00,VWS V14.01,2013-02-18 04:35:00,
2013-02-17 22:40:00,31.6,29.0,29.57,SE,144,11.0,15.7,90,0.00,,CLR,0.00,VWS V14.01,2013-02-18 04:40:00,
2013-02-17 22:45:00,31.9,29.3,29.58,SE,136,10.0,15.7,90,0.00,,CLR,0.00,VWS V14.01,2013-02-18 04:45:00,
2013-02-17 22:50:00,32.0,29.1,29.58,SE,130,11.0,15.7,89,0.00,,CLR,0.00,VWS V14.01,2013-02-18 04:50:00,
2013-02-17 22:55:00,32.1,29.5,29.57,SE,145,11.0,15.7,90,0.00,,CLR,0.00,VWS V14.01,2013-02-18 04:55:00,
2013-02-17 23:00:00,32.2,29.3,29.57,SE,138,11.0,14.7,89,0.00,,CLR,0.00,VWS V14.01,2013-02-18 05:00:00,
2013-02-17 23:05:00,31.8,29.2,29.57,SE,136,12.0,15.7,90,0.00,,CLR,0.00,VWS V14.01,2013-02-18 05:05:00,
2013-02-17 23:10:00,31.7,29.1,29.57,SE,143,13.0,14.7,90,0.00,,CLR,0.00,VWS V14.01,2013-02-18 05:10:00,
2013-02-17 23:15:00,31.9,29.3,29.56,SE,140,9.0,15.7,90,0.00,,CLR,0.00,VWS V14.01,2013-02-18 05:15:00,
2013-02-17 23:20:00,31.9,29.3,29.56,SE,136,8.0,14.7,90,0.00,,CLR,0.00,VWS V14.01,2013-02-18 05:20:00,
2013-02-17 23:25:00,31.4,28.8,29.56,SE,138,13.0,14.7,90,0.00,,CLR,0.00,VWS V14.01,2013-02-18 05:25:00,
2013-02-17 23:30:00,31.2,28.6,29.56,SE,134,10.0,14.7,90,0.00,,CLR,0.00,VWS V14.01,2013-02-18 05:30:00,
2013-02-17 23:35:00,30.8,28.5,29.56,SE,129,7.0,13.6,91,0.00,,CLR,0.00,VWS V14.01,2013-02-18 05:35:00,
2013-02-17 23:40:00,30.9,28.6,29.56,SE,146,10.0,13.6,91,0.00,,CLR,0.00,VWS V14.01,2013-02-18 05:40:00,
2013-02-17 23:45:00,31.1,28.8,29.55,SE,139,14.0,19.9,91,0.00,,CLR,0.00,VWS V14.01,2013-02-18 05:45:00,
2013-02-17 23:50:00,31.2,28.9,29.56,SE,141,15.0,18.9,91,0.00,,CLR,0.00,VWS V14.01,2013-02-18 05:50:00,
2013-02-17 23:55:00,31.2,28.6,29.56,SSE,148,11.0,15.7,90,0.00,,CLR,0.00,VWS V14.01,2013-02-18 05:55:00,